TimeEST,TemperatureF,Dew PointF,Humidity,Sea Level PressureIn,VisibilityMPH,Wind Direction,Wind SpeedMPH,Gust SpeedMPH,PrecipitationIn,Events,Conditions,WindDirDegrees,DateUTC
12:53 AM,78.1,73.9,87,30.14,10.0,NE,8.1,-,N/A,,Clear,50,2013-12-12 05:53:00
1:53 AM,-9999,-9999,N/A,30.13,10.0,NE,6.9,-,N/A,,Partly Cloudy,40,2013-12-12 06:53:00
2:53 AM,78.1,75.0,90,30.12,10.0,NNE,8.1,-,N/A,,Scattered Clouds,20,2013-12-12 07:53:00
3:24 AM,-9999,-9999,N/A,30.12,10.0,NNE,8.1,-,N/A,,Scattered Clouds,30,2013-12-12 08:24:00
3:33 AM,-9999,-9999,N/A,30.12,10.0,NE,8.1,-,N/A,,Mostly Cloudy,40,2013-12-12 08:33:00
3:44 AM,-9999,-9999,N/A,30.12,10.0,NE,6.9,-,N/A,,Mostly Cloudy,40,2013-12-12 08:44:00
3:53 AM,-9999,-9999,N/A,30.12,10.0,NE,8.1,-,N/A,,Scattered Clouds,40,2013-12-12 08:53:00
4:53 AM,75.0,70.0,84,30.12,10.0,ENE,9.2,-,N/A,,Overcast,60,2013-12-12 09:53:00
5:53 AM,75.0,70.0,84,30.13,10.0,ENE,12.7,-,N/A,,Overcast,70,2013-12-12 10:53:00
6:08 AM,75.2,69.8,83,30.13,10.0,ENE,9.2,-,N/A,,Mostly Cloudy,70,2013-12-12 11:08:00
6:53 AM,75.0,69.1,82,30.15,10.0,ENE,8.1,-,N/A,,Mostly Cloudy,60,2013-12-12 11:53:00
7:53 AM,75.9,69.1,79,30.16,10.0,ENE,6.9,-,N/A,,Mostly Cloudy,60,2013-12-12 12:53:00
8:53 AM,79.0,72.0,79,30.19,10.0,NE,8.1,-,N/A,,Mostly Cloudy,40,2013-12-12 13:53:00
9:53 AM,79.0,73.0,82,30.21,10.0,NNE,11.5,-,N/A,,Mostly Cloudy,20,2013-12-12 14:53:00
10:53 AM,80.1,73.9,81,30.20,10.0,North,11.5,-,N/A,,Mostly Cloudy,10,2013-12-12 15:53:00
11:53 AM,81.0,73.9,79,30.18,10.0,North,13.8,-,N/A,,Mostly Cloudy,10,2013-12-12 16:53:00
12:53 PM,81.0,73.0,77,30.14,10.0,NNE,13.8,-,N/A,,Mostly Cloudy,20,2013-12-12 17:53:00
1:53 PM,80.1,73.0,79,30.12,10.0,NNE,13.8,21.9,N/A,,Mostly Cloudy,20,2013-12-12 18:53:00
2:53 PM,79.0,72.0,79,30.11,10.0,NNE,17.3,-,N/A,,Scattered Clouds,20,2013-12-12 19:53:00
3:53 PM,79.0,71.1,77,30.11,10.0,NNE,12.7,-,N/A,,Scattered Clouds,20,2013-12-12 20:53:00
4:53 PM,78.1,71.1,79,30.12,10.0,NE,11.5,-,N/A,,Scattered Clouds,40,2013-12-12 21:53:00
5:53 PM,75.9,71.1,85,30.12,10.0,NNE,13.8,-,N/A,,Scattered Clouds,20,2013-12-12 22:53:00
6:46 PM,77.0,71.6,83,30.14,10.0,NE,13.8,-,N/A,,Mostly Cloudy,40,2013-12-12 23:46:00
6:53 PM,77.0,70.0,79,30.14,10.0,NNE,18.4,25.3,N/A,,Mostly Cloudy,20,2013-12-12 23:53:00
7:53 PM,73.9,68.0,82,30.16,10.0,NE,17.3,26.5,N/A,,Mostly Cloudy,40,2013-12-13 00:53:00
8:53 PM,73.9,64.9,73,30.17,10.0,NNE,17.3,27.6,N/A,,Mostly Cloudy,30,2013-12-13 01:53:00
9:53 PM,73.0,63.0,71,30.17,10.0,NE,17.3,26.5,N/A,,Mostly Cloudy,40,2013-12-13 02:53:00
10:06 PM,73.4,62.6,69,30.18,10.0,NE,18.4,27.6,N/A,,Overcast,40,2013-12-13 03:06:00
10:53 PM,72.0,63.0,73,30.17,10.0,NNE,18.4,27.6,N/A,,Clear,30,2013-12-13 03:53:00
11:53 PM,72.0,63.0,73,30.16,10.0,NNE,17.3,27.6,N/A,,Overcast,30,2013-12-13 04:53:00